Garnish, Canada
Current Conditions -  °F | °C
As of 10:00 PM on Wednesday 17 Dec 2014 (Local Time) from LFVP Reporting Station
Broken Clouds Broken Clouds  
Wind Chill: 24°   Ceiling: 2800
Heat Index: 34°   Visibility: 6mi
Dew Point: 32°   Wind: 14mph
Humidity: 93%   Direction: 130°SE
Pressure: 30.09"   Gusts: NA
Location:  47.23°N, 55.37°W
Report Text: LFVP 180100Z 13012KT 9999 FEW012 BKN028 01/M00 Q1019 NOSIG
Loading
Personal Weather Stations






























Interactive Weather Map New forecast layout! Learn more

10-Day Weather Forecast

Advertisements
Track Severe Weather on mobile